sensor_id;sensor_type;location;lat;lon;timestamp;temperature;humidity
15231;DHT22;32569;51.762;8.564;2023-05-07T18:17:22;15.40;99.90
15231;DHT22;32569;51.762;8.564;2023-05-07T18:19:51;15.30;99.90
15231;DHT22;32569;51.762;8.564;2023-05-07T18:22:18;15.40;99.90
15231;DHT22;32569;51.762;8.564;2023-05-07T18:24:44;15.40;99.90
15231;DHT22;32569;51.762;8.564;2023-05-07T18:27:11;15.40;99.90
15231;DHT22;32569;51.762;8.564;2023-05-07T18:29:38;15.40;99.90
15231;DHT22;32569;51.762;8.564;2023-05-07T18:32:05;15.40;99.90
15231;DHT22;32569;51.762;8.564;2023-05-07T18:34:34;15.30;99.90
15231;DHT22;32569;51.762;8.564;2023-05-07T18:37:01;15.30;99.90
15231;DHT22;32569;51.762;8.564;2023-05-07T18:39:27;15.30;99.90
15231;DHT22;32569;51.762;8.564;2023-05-07T18:41:54;15.30;99.90
15231;DHT22;32569;51.762;8.564;2023-05-07T18:44:22;15.30;99.90
15231;DHT22;32569;51.762;8.564;2023-05-07T18:46:49;15.20;99.90
15231;DHT22;32569;51.762;8.564;2023-05-07T18:49:15;15.20;99.90
15231;DHT22;32569;51.762;8.564;2023-05-07T18:51:43;15.10;99.90
15231;DHT22;32569;51.762;8.564;2023-05-07T18:54:10;15.10;99.90
15231;DHT22;32569;51.762;8.564;2023-05-07T18:56:37;15.10;99.90
15231;DHT22;32569;51.762;8.564;2023-05-07T18:59:04;15.10;99.90
15231;DHT22;32569;51.762;8.564;2023-05-07T19:01:31;15.00;99.90
15231;DHT22;32569;51.762;8.564;2023-05-07T19:03:58;15.00;99.90
15231;DHT22;32569;51.762;8.564;2023-05-07T19:06:24;15.00;99.90
15231;DHT22;32569;51.762;8.564;2023-05-07T19:08:52;14.90;99.90
15231;DHT22;32569;51.762;8.564;2023-05-07T19:11:19;14.90;99.90
15231;DHT22;32569;51.762;8.564;2023-05-07T19:13:46;14.90;99.90
15231;DHT22;32569;51.762;8.564;2023-05-07T19:16:12;14.90;99.90
15231;DHT22;32569;51.762;8.564;2023-05-07T19:18:39;14.80;99.90
15231;DHT22;32569;51.762;8.564;2023-05-07T19:21:06;14.70;99.90
15231;DHT22;32569;51.762;8.564;2023-05-07T19:23:33;14.70;99.90
15231;DHT22;32569;51.762;8.564;2023-05-07T19:26:07;14.70;99.90
15231;DHT22;32569;51.762;8.564;2023-05-07T19:28:34;14.70;99.90
15231;DHT22;32569;51.762;8.564;2023-05-07T19:31:01;14.60;99.90
15231;DHT22;32569;51.762;8.564;2023-05-07T19:33:27;14.60;99.90
15231;DHT22;32569;51.762;8.564;2023-05-07T19:35:55;14.60;99.90
15231;DHT22;32569;51.762;8.564;2023-05-07T19:38:23;14.60;99.90
15231;DHT22;32569;51.762;8.564;2023-05-07T19:40:50;14.50;99.90
15231;DHT22;32569;51.762;8.564;2023-05-07T19:43:18;14.50;99.90
15231;DHT22;32569;51.762;8.564;2023-05-07T19:45:45;14.40;99.90
15231;DHT22;32569;51.762;8.564;2023-05-07T19:48:12;14.50;99.90
15231;DHT22;32569;51.762;8.564;2023-05-07T19:50:39;14.40;99.90
15231;DHT22;32569;51.762;8.564;2023-05-07T19:53:06;14.40;99.90
15231;DHT22;32569;51.762;8.564;2023-05-07T19:55:32;14.30;99.90
15231;DHT22;32569;51.762;8.564;2023-05-07T19:57:59;14.20;99.90
15231;DHT22;32569;51.762;8.564;2023-05-07T20:00:27;14.20;99.90
15231;DHT22;32569;51.762;8.564;2023-05-07T20:02:56;14.20;99.90
15231;DHT22;32569;51.762;8.564;2023-05-07T20:05:23;14.10;99.90
15231;DHT22;32569;51.762;8.564;2023-05-07T20:07:52;14.00;99.90
15231;DHT22;32569;51.762;8.564;2023-05-07T20:10:19;14.00;99.90
15231;DHT22;32569;51.762;8.564;2023-05-07T20:12:46;13.90;99.90
15231;DHT22;32569;51.762;8.564;2023-05-07T20:15:12;13.90;99.90
15231;DHT22;32569;51.762;8.564;2023-05-07T20:17:41;13.80;99.90
15231;DHT22;32569;51.762;8.564;2023-05-07T20:20:09;13.70;99.90
15231;DHT22;32569;51.762;8.564;2023-05-07T20:22:35;13.80;99.90
15231;DHT22;32569;51.762;8.564;2023-05-07T20:25:03;13.70;99.90
15231;DHT22;32569;51.762;8.564;2023-05-07T20:27:31;13.60;99.90
15231;DHT22;32569;51.762;8.564;2023-05-07T20:29:59;13.60;99.90
15231;DHT22;32569;51.762;8.564;2023-05-07T20:32:26;13.60;99.90
15231;DHT22;32569;51.762;8.564;2023-05-07T20:34:54;13.60;99.90
15231;DHT22;32569;51.762;8.564;2023-05-07T20:37:21;13.50;99.90
15231;DHT22;32569;51.762;8.564;2023-05-07T20:39:47;13.40;99.90
15231;DHT22;32569;51.762;8.564;2023-05-07T20:42:14;13.40;99.90
15231;DHT22;32569;51.762;8.564;2023-05-07T20:44:41;13.40;99.90
15231;DHT22;32569;51.762;8.564;2023-05-07T20:47:08;13.30;99.90
15231;DHT22;32569;51.762;8.564;2023-05-07T20:49:35;13.20;99.90
15231;DHT22;32569;51.762;8.564;2023-05-07T20:52:03;13.20;99.90
15231;DHT22;32569;51.762;8.564;2023-05-07T20:54:30;13.20;99.90
15231;DHT22;32569;51.762;8.564;2023-05-07T20:56:57;13.10;99.90
15231;DHT22;32569;51.762;8.564;2023-05-07T20:59:24;13.10;99.90
15231;DHT22;32569;51.762;8.564;2023-05-07T21:01:51;13.10;99.90
15231;DHT22;32569;51.762;8.564;2023-05-07T21:04:18;13.00;99.90
15231;DHT22;32569;51.762;8.564;2023-05-07T21:06:45;13.00;99.90
15231;DHT22;32569;51.762;8.564;2023-05-07T21:09:13;12.90;99.90
15231;DHT22;32569;51.762;8.564;2023-05-07T21:11:40;12.90;99.90
15231;DHT22;32569;51.762;8.564;2023-05-07T21:14:07;13.00;99.90
15231;DHT22;32569;51.762;8.564;2023-05-07T21:16:33;12.90;99.90
15231;DHT22;32569;51.762;8.564;2023-05-07T21:19:00;12.90;99.90
15231;DHT22;32569;51.762;8.564;2023-05-07T21:21:27;12.80;99.90
15231;DHT22;32569;51.762;8.564;2023-05-07T21:23:54;12.70;99.90
15231;DHT22;32569;51.762;8.564;2023-05-07T21:26:22;12.70;99.90
15231;DHT22;32569;51.762;8.564;2023-05-07T21:28:49;12.60;99.90
15231;DHT22;32569;51.762;8.564;2023-05-07T21:31:16;12.60;99.90
15231;DHT22;32569;51.762;8.564;2023-05-07T21:33:42;12.60;99.90
15231;DHT22;32569;51.762;8.564;2023-05-07T21:36:09;12.60;99.90
15231;DHT22;32569;51.762;8.564;2023-05-07T21:38:37;12.60;99.90
15231;DHT22;32569;51.762;8.564;2023-05-07T21:41:04;12.50;99.90
15231;DHT22;32569;51.762;8.564;2023-05-07T21:43:32;12.50;99.90
15231;DHT22;32569;51.762;8.564;2023-05-07T21:45:58;12.50;99.90
15231;DHT22;32569;51.762;8.564;2023-05-07T21:48:27;12.50;99.90
15231;DHT22;32569;51.762;8.564;2023-05-07T21:51:01;12.40;99.90
15231;DHT22;32569;51.762;8.564;2023-05-07T21:53:28;12.50;99.90
15231;DHT22;32569;51.762;8.564;2023-05-07T21:55:55;12.40;99.90
15231;DHT22;32569;51.762;8.564;2023-05-07T21:58:24;12.30;99.90
15231;DHT22;32569;51.762;8.564;2023-05-07T22:00:52;12.40;99.90
15231;DHT22;32569;51.762;8.564;2023-05-07T22:03:19;12.40;99.90
15231;DHT22;32569;51.762;8.564;2023-05-07T22:05:46;12.40;99.90
15231;DHT22;32569;51.762;8.564;2023-05-07T22:08:12;12.40;99.90
15231;DHT22;32569;51.762;8.564;2023-05-07T22:10:39;12.30;99.90
15231;DHT22;32569;51.762;8.564;2023-05-07T22:13:06;12.30;99.90
15231;DHT22;32569;51.762;8.564;2023-05-07T22:15:32;12.30;99.90
15231;DHT22;32569;51.762;8.564;2023-05-07T22:18:00;12.20;99.90
15231;DHT22;32569;51.762;8.564;2023-05-07T22:20:27;12.20;99.90
15231;DHT22;32569;51.762;8.564;2023-05-07T22:22:54;12.20;99.90
15231;DHT22;32569;51.762;8.564;2023-05-07T22:25:22;12.10;99.90
15231;DHT22;32569;51.762;8.564;2023-05-07T22:27:49;12.20;99.90
15231;DHT22;32569;51.762;8.564;2023-05-07T22:30:16;12.20;99.90
15231;DHT22;32569;51.762;8.564;2023-05-07T22:32:43;12.10;99.90
15231;DHT22;32569;51.762;8.564;2023-05-07T22:35:11;12.10;99.90
15231;DHT22;32569;51.762;8.564;2023-05-07T22:37:38;12.00;99.90
15231;DHT22;32569;51.762;8.564;2023-05-07T22:40:08;12.10;99.90
15231;DHT22;32569;51.762;8.564;2023-05-07T22:42:35;12.00;99.90
15231;DHT22;32569;51.762;8.564;2023-05-07T22:45:02;12.10;99.90
15231;DHT22;32569;51.762;8.564;2023-05-07T22:47:29;12.10;99.90
15231;DHT22;32569;51.762;8.564;2023-05-07T22:49:56;12.10;99.90
15231;DHT22;32569;51.762;8.564;2023-05-07T22:52:24;12.10;99.90
15231;DHT22;32569;51.762;8.564;2023-05-07T22:54:50;12.10;99.90
15231;DHT22;32569;51.762;8.564;2023-05-07T22:57:17;12.10;99.90
15231;DHT22;32569;51.762;8.564;2023-05-07T22:59:43;12.00;99.90
15231;DHT22;32569;51.762;8.564;2023-05-07T23:02:10;12.00;99.90
15231;DHT22;32569;51.762;8.564;2023-05-07T23:04:37;12.00;99.90
15231;DHT22;32569;51.762;8.564;2023-05-07T23:07:04;12.00;99.90
15231;DHT22;32569;51.762;8.564;2023-05-07T23:09:32;12.00;99.90
15231;DHT22;32569;51.762;8.564;2023-05-07T23:11:58;12.00;99.90
15231;DHT22;32569;51.762;8.564;2023-05-07T23:14:25;12.10;99.90
15231;DHT22;32569;51.762;8.564;2023-05-07T23:16:52;12.00;99.90
15231;DHT22;32569;51.762;8.564;2023-05-07T23:19:18;12.10;99.90
15231;DHT22;32569;51.762;8.564;2023-05-07T23:21:45;12.10;99.90
15231;DHT22;32569;51.762;8.564;2023-05-07T23:24:11;12.10;99.90
15231;DHT22;32569;51.762;8.564;2023-05-07T23:26:39;12.20;99.90
15231;DHT22;32569;51.762;8.564;2023-05-07T23:29:06;12.20;99.90
15231;DHT22;32569;51.762;8.564;2023-05-07T23:31:33;12.10;99.90
15231;DHT22;32569;51.762;8.564;2023-05-07T23:33:59;12.10;99.90
15231;DHT22;32569;51.762;8.564;2023-05-07T23:36:26;12.00;99.90
15231;DHT22;32569;51.762;8.564;2023-05-07T23:38:53;12.00;99.90
15231;DHT22;32569;51.762;8.564;2023-05-07T23:41:20;12.00;99.90
15231;DHT22;32569;51.762;8.564;2023-05-07T23:43:48;12.00;99.90
15231;DHT22;32569;51.762;8.564;2023-05-07T23:46:17;11.90;99.90
15231;DHT22;32569;51.762;8.564;2023-05-07T23:48:44;11.90;99.90
15231;DHT22;32569;51.762;8.564;2023-05-07T23:51:10;12.00;99.90
15231;DHT22;32569;51.762;8.564;2023-05-07T23:53:37;12.10;99.90
15231;DHT22;32569;51.762;8.564;2023-05-07T23:56:04;12.10;99.90
15231;DHT22;32569;51.762;8.564;2023-05-07T23:58:31;12.00;99.90
